sensor_id;sensor_type;location;lat;lon;timestamp;P1;durP1;ratioP1;P2;durP2;ratioP2
32146;SDS011;32190;49.112;8.598;2023-03-01T00:01:19;2.28;;;2.08;;
32146;SDS011;32190;49.112;8.598;2023-03-01T00:07:11;3.50;;;2.60;;
32146;SDS011;32190;49.112;8.598;2023-03-01T00:13:02;4.38;;;2.97;;
32146;SDS011;32190;49.112;8.598;2023-03-01T00:18:55;2.60;;;2.25;;
32146;SDS011;32190;49.112;8.598;2023-03-01T00:24:47;3.65;;;2.63;;
32146;SDS011;32190;49.112;8.598;2023-03-01T00:30:37;3.58;;;3.10;;
32146;SDS011;32190;49.112;8.598;2023-03-01T00:36:29;2.55;;;2.35;;
32146;SDS011;32190;49.112;8.598;2023-03-01T00:42:24;3.15;;;2.30;;
32146;SDS011;32190;49.112;8.598;2023-03-01T00:48:15;2.45;;;2.25;;
32146;SDS011;32190;49.112;8.598;2023-03-01T00:54:05;3.08;;;2.63;;
32146;SDS011;32190;49.112;8.598;2023-03-01T00:59:56;2.50;;;2.30;;
32146;SDS011;32190;49.112;8.598;2023-03-01T01:05:46;2.80;;;2.60;;
32146;SDS011;32190;49.112;8.598;2023-03-01T01:11:37;2.47;;;2.28;;
32146;SDS011;32190;49.112;8.598;2023-03-01T01:17:28;3.42;;;2.97;;
32146;SDS011;32190;49.112;8.598;2023-03-01T01:23:24;2.97;;;2.33;;
32146;SDS011;32190;49.112;8.598;2023-03-01T01:29:37;2.28;;;2.08;;
32146;SDS011;32190;49.112;8.598;2023-03-01T01:35:44;3.00;;;2.70;;
32146;SDS011;32190;49.112;8.598;2023-03-01T01:41:55;3.78;;;3.42;;
32146;SDS011;32190;49.112;8.598;2023-03-01T01:47:48;2.90;;;2.55;;
32146;SDS011;32190;49.112;8.598;2023-03-01T01:53:42;4.03;;;3.33;;
32146;SDS011;32190;49.112;8.598;2023-03-01T01:59:36;3.22;;;2.95;;
32146;SDS011;32190;49.112;8.598;2023-03-01T02:11:44;2.72;;;2.47;;
32146;SDS011;32190;49.112;8.598;2023-03-01T02:17:35;2.90;;;2.67;;
32146;SDS011;32190;49.112;8.598;2023-03-01T02:23:26;2.60;;;2.40;;
32146;SDS011;32190;49.112;8.598;2023-03-01T02:29:18;2.80;;;2.50;;
32146;SDS011;32190;49.112;8.598;2023-03-01T02:35:09;3.67;;;2.97;;
32146;SDS011;32190;49.112;8.598;2023-03-01T02:41:03;2.90;;;2.70;;
32146;SDS011;32190;49.112;8.598;2023-03-01T02:46:56;2.83;;;2.58;;
32146;SDS011;32190;49.112;8.598;2023-03-01T02:58:58;2.80;;;2.60;;
32146;SDS011;32190;49.112;8.598;2023-03-01T03:04:50;3.67;;;2.55;;
32146;SDS011;32190;49.112;8.598;2023-03-01T03:10:41;3.03;;;2.60;;
32146;SDS011;32190;49.112;8.598;2023-03-01T03:16:33;4.18;;;2.97;;
32146;SDS011;32190;49.112;8.598;2023-03-01T03:22:23;3.13;;;2.80;;
32146;SDS011;32190;49.112;8.598;2023-03-01T03:28:14;4.22;;;2.90;;
32146;SDS011;32190;49.112;8.598;2023-03-01T03:34:05;3.30;;;3.00;;
32146;SDS011;32190;49.112;8.598;2023-03-01T03:39:56;3.83;;;2.92;;
32146;SDS011;32190;49.112;8.598;2023-03-01T03:45:47;5.75;;;3.33;;
32146;SDS011;32190;49.112;8.598;2023-03-01T03:51:39;3.03;;;2.72;;
32146;SDS011;32190;49.112;8.598;2023-03-01T03:57:30;3.10;;;2.70;;
32146;SDS011;32190;49.112;8.598;2023-03-01T04:03:20;5.63;;;3.72;;
32146;SDS011;32190;49.112;8.598;2023-03-01T04:09:11;3.35;;;2.72;;
32146;SDS011;32190;49.112;8.598;2023-03-01T04:15:03;4.03;;;3.13;;
32146;SDS011;32190;49.112;8.598;2023-03-01T04:21:02;4.15;;;3.22;;
32146;SDS011;32190;49.112;8.598;2023-03-01T04:26:53;5.43;;;3.75;;
32146;SDS011;32190;49.112;8.598;2023-03-01T04:32:44;3.92;;;3.25;;
32146;SDS011;32190;49.112;8.598;2023-03-01T04:38:35;4.68;;;3.53;;
32146;SDS011;32190;49.112;8.598;2023-03-01T04:44:27;3.90;;;3.22;;
32146;SDS011;32190;49.112;8.598;2023-03-01T04:50:17;3.35;;;2.92;;
32146;SDS011;32190;49.112;8.598;2023-03-01T04:56:13;4.40;;;3.70;;
32146;SDS011;32190;49.112;8.598;2023-03-01T05:02:04;3.97;;;3.53;;
32146;SDS011;32190;49.112;8.598;2023-03-01T05:07:55;4.32;;;3.80;;
32146;SDS011;32190;49.112;8.598;2023-03-01T05:13:47;4.07;;;3.25;;
32146;SDS011;32190;49.112;8.598;2023-03-01T05:19:39;5.63;;;3.72;;
32146;SDS011;32190;49.112;8.598;2023-03-01T05:25:33;5.28;;;3.72;;
32146;SDS011;32190;49.112;8.598;2023-03-01T05:31:23;4.30;;;3.40;;
32146;SDS011;32190;49.112;8.598;2023-03-01T05:37:21;4.15;;;3.70;;
32146;SDS011;32190;49.112;8.598;2023-03-01T05:43:21;4.53;;;3.33;;
32146;SDS011;32190;49.112;8.598;2023-03-01T05:49:22;4.88;;;4.00;;
32146;SDS011;32190;49.112;8.598;2023-03-01T05:55:21;4.38;;;3.38;;
32146;SDS011;32190;49.112;8.598;2023-03-01T06:01:25;6.50;;;4.15;;
32146;SDS011;32190;49.112;8.598;2023-03-01T06:07:18;6.18;;;4.50;;
32146;SDS011;32190;49.112;8.598;2023-03-01T06:13:09;4.53;;;3.65;;
32146;SDS011;32190;49.112;8.598;2023-03-01T06:18:59;7.25;;;3.97;;
32146;SDS011;32190;49.112;8.598;2023-03-01T06:24:50;5.78;;;4.25;;
32146;SDS011;32190;49.112;8.598;2023-03-01T06:30:40;4.22;;;3.70;;
32146;SDS011;32190;49.112;8.598;2023-03-01T06:36:31;5.85;;;4.43;;
32146;SDS011;32190;49.112;8.598;2023-03-01T06:42:21;5.43;;;3.42;;
32146;SDS011;32190;49.112;8.598;2023-03-01T06:48:12;5.30;;;3.72;;
32146;SDS011;32190;49.112;8.598;2023-03-01T06:54:05;3.90;;;3.40;;
32146;SDS011;32190;49.112;8.598;2023-03-01T06:59:56;7.13;;;4.32;;
32146;SDS011;32190;49.112;8.598;2023-03-01T07:05:50;5.78;;;4.57;;
32146;SDS011;32190;49.112;8.598;2023-03-01T07:11:42;6.30;;;4.47;;
32146;SDS011;32190;49.112;8.598;2023-03-01T07:17:33;5.80;;;4.20;;
32146;SDS011;32190;49.112;8.598;2023-03-01T07:23:24;6.22;;;4.68;;
32146;SDS011;32190;49.112;8.598;2023-03-01T07:29:14;4.78;;;3.65;;
32146;SDS011;32190;49.112;8.598;2023-03-01T07:35:06;7.63;;;5.10;;
32146;SDS011;32190;49.112;8.598;2023-03-01T07:41:12;7.55;;;4.75;;
32146;SDS011;32190;49.112;8.598;2023-03-01T07:47:03;6.70;;;4.70;;
32146;SDS011;32190;49.112;8.598;2023-03-01T07:52:59;7.60;;;5.45;;
32146;SDS011;32190;49.112;8.598;2023-03-01T07:59:02;7.45;;;5.00;;
32146;SDS011;32190;49.112;8.598;2023-03-01T08:04:53;9.40;;;5.53;;
32146;SDS011;32190;49.112;8.598;2023-03-01T08:10:45;9.30;;;6.38;;
32146;SDS011;32190;49.112;8.598;2023-03-01T08:16:36;5.57;;;4.28;;
32146;SDS011;32190;49.112;8.598;2023-03-01T08:22:29;8.15;;;5.43;;
32146;SDS011;32190;49.112;8.598;2023-03-01T08:28:22;8.45;;;5.75;;
32146;SDS011;32190;49.112;8.598;2023-03-01T08:34:14;11.93;;;7.20;;
32146;SDS011;32190;49.112;8.598;2023-03-01T08:40:09;11.82;;;7.57;;
32146;SDS011;32190;49.112;8.598;2023-03-01T08:46:00;13.85;;;8.60;;
32146;SDS011;32190;49.112;8.598;2023-03-01T08:51:51;7.30;;;5.80;;
32146;SDS011;32190;49.112;8.598;2023-03-01T08:57:44;11.60;;;8.40;;
32146;SDS011;32190;49.112;8.598;2023-03-01T09:03:35;10.32;;;6.20;;
32146;SDS011;32190;49.112;8.598;2023-03-01T09:09:28;11.80;;;7.75;;
32146;SDS011;32190;49.112;8.598;2023-03-01T09:15:18;11.95;;;7.70;;
32146;SDS011;32190;49.112;8.598;2023-03-01T09:21:11;7.97;;;5.30;;
32146;SDS011;32190;49.112;8.598;2023-03-01T09:27:03;7.95;;;6.13;;
32146;SDS011;32190;49.112;8.598;2023-03-01T09:32:58;9.40;;;6.82;;
32146;SDS011;32190;49.112;8.598;2023-03-01T09:38:49;8.32;;;6.30;;
32146;SDS011;32190;49.112;8.598;2023-03-01T09:44:54;9.50;;;6.45;;
32146;SDS011;32190;49.112;8.598;2023-03-01T09:50:52;9.93;;;6.95;;
32146;SDS011;32190;49.112;8.598;2023-03-01T10:09:07;6.38;;;4.85;;
32146;SDS011;32190;49.112;8.598;2023-03-01T10:21:02;10.35;;;7.63;;
32146;SDS011;32190;49.112;8.598;2023-03-01T10:27:19;9.23;;;6.85;;
32146;SDS011;32190;49.112;8.598;2023-03-01T10:33:35;11.43;;;8.40;;
32146;SDS011;32190;49.112;8.598;2023-03-01T10:39:29;8.15;;;5.60;;
32146;SDS011;32190;49.112;8.598;2023-03-01T10:51:20;9.95;;;7.55;;
32146;SDS011;32190;49.112;8.598;2023-03-01T10:57:24;8.52;;;6.43;;
32146;SDS011;32190;49.112;8.598;2023-03-01T11:03:33;9.85;;;6.97;;
32146;SDS011;32190;49.112;8.598;2023-03-01T11:09:25;10.70;;;7.72;;
32146;SDS011;32190;49.112;8.598;2023-03-01T11:15:28;11.07;;;7.85;;
32146;SDS011;32190;49.112;8.598;2023-03-01T11:21:19;8.88;;;6.18;;
32146;SDS011;32190;49.112;8.598;2023-03-01T11:27:16;7.50;;;5.75;;
32146;SDS011;32190;49.112;8.598;2023-03-01T11:33:11;9.00;;;5.93;;
32146;SDS011;32190;49.112;8.598;2023-03-01T11:39:32;12.02;;;7.13;;
32146;SDS011;32190;49.112;8.598;2023-03-01T11:45:31;13.02;;;8.80;;
32146;SDS011;32190;49.112;8.598;2023-03-01T12:10:14;9.73;;;7.40;;
32146;SDS011;32190;49.112;8.598;2023-03-01T12:16:22;8.27;;;6.57;;
32146;SDS011;32190;49.112;8.598;2023-03-01T12:22:31;10.15;;;6.32;;
32146;SDS011;32190;49.112;8.598;2023-03-01T12:47:08;9.45;;;7.05;;
32146;SDS011;32190;49.112;8.598;2023-03-01T12:53:07;10.30;;;7.40;;
32146;SDS011;32190;49.112;8.598;2023-03-01T12:59:15;7.30;;;5.68;;
32146;SDS011;32190;49.112;8.598;2023-03-01T13:11:35;7.60;;;5.20;;
32146;SDS011;32190;49.112;8.598;2023-03-01T13:17:29;7.55;;;6.32;;
32146;SDS011;32190;49.112;8.598;2023-03-01T13:23:34;9.07;;;7.07;;
32146;SDS011;32190;49.112;8.598;2023-03-01T13:29:29;11.23;;;7.78;;
32146;SDS011;32190;49.112;8.598;2023-03-01T13:35:43;8.98;;;6.13;;
32146;SDS011;32190;49.112;8.598;2023-03-01T13:47:34;12.88;;;8.85;;
32146;SDS011;32190;49.112;8.598;2023-03-01T13:53:37;7.57;;;5.75;;
32146;SDS011;32190;49.112;8.598;2023-03-01T14:05:37;7.25;;;5.38;;
32146;SDS011;32190;49.112;8.598;2023-03-01T14:23:54;6.28;;;5.57;;
32146;SDS011;32190;49.112;8.598;2023-03-01T14:29:53;10.75;;;8.02;;
32146;SDS011;32190;49.112;8.598;2023-03-01T14:35:59;11.05;;;7.95;;
32146;SDS011;32190;49.112;8.598;2023-03-01T14:41:53;10.63;;;7.68;;
32146;SDS011;32190;49.112;8.598;2023-03-01T14:47:44;10.43;;;7.22;;
32146;SDS011;32190;49.112;8.598;2023-03-01T14:53:35;7.55;;;5.50;;
32146;SDS011;32190;49.112;8.598;2023-03-01T14:59:27;8.18;;;6.72;;
32146;SDS011;32190;49.112;8.598;2023-03-01T15:05:39;8.75;;;6.32;;
32146;SDS011;32190;49.112;8.598;2023-03-01T15:11:30;7.38;;;5.82;;
32146;SDS011;32190;49.112;8.598;2023-03-01T15:17:26;8.68;;;6.80;;
32146;SDS011;32190;49.112;8.598;2023-03-01T15:30:29;7.75;;;5.75;;
32146;SDS011;32190;49.112;8.598;2023-03-01T15:36:45;7.10;;;5.03;;
32146;SDS011;32190;49.112;8.598;2023-03-01T15:42:50;6.00;;;5.00;;
32146;SDS011;32190;49.112;8.598;2023-03-01T15:48:55;8.68;;;5.43;;
32146;SDS011;32190;49.112;8.598;2023-03-01T15:54:54;7.05;;;5.45;;
32146;SDS011;32190;49.112;8.598;2023-03-01T16:08:17;7.93;;;6.20;;
32146;SDS011;32190;49.112;8.598;2023-03-01T16:21:31;7.25;;;4.75;;
32146;SDS011;32190;49.112;8.598;2023-03-01T16:27:50;8.35;;;5.20;;
32146;SDS011;32190;49.112;8.598;2023-03-01T16:33:57;5.75;;;4.03;;
32146;SDS011;32190;49.112;8.598;2023-03-01T16:40:03;6.70;;;4.93;;
32146;SDS011;32190;49.112;8.598;2023-03-01T16:46:28;5.88;;;4.82;;
32146;SDS011;32190;49.112;8.598;2023-03-01T16:52:54;5.00;;;4.28;;
32146;SDS011;32190;49.112;8.598;2023-03-01T16:59:08;5.20;;;4.03;;
32146;SDS011;32190;49.112;8.598;2023-03-01T17:12:15;5.45;;;4.07;;
32146;SDS011;32190;49.112;8.598;2023-03-01T17:25:19;5.43;;;3.95;;
32146;SDS011;32190;49.112;8.598;2023-03-01T17:37:49;4.90;;;3.35;;
32146;SDS011;32190;49.112;8.598;2023-03-01T17:44:15;4.75;;;4.03;;
32146;SDS011;32190;49.112;8.598;2023-03-01T17:50:28;4.50;;;3.65;;
32146;SDS011;32190;49.112;8.598;2023-03-01T17:57:12;4.00;;;3.40;;
32146;SDS011;32190;49.112;8.598;2023-03-01T18:16:33;3.72;;;3.33;;
32146;SDS011;32190;49.112;8.598;2023-03-01T18:22:37;3.60;;;2.92;;
32146;SDS011;32190;49.112;8.598;2023-03-01T18:29:01;4.93;;;3.63;;
32146;SDS011;32190;49.112;8.598;2023-03-01T18:35:06;3.75;;;3.28;;
32146;SDS011;32190;49.112;8.598;2023-03-01T18:41:02;4.97;;;3.47;;
32146;SDS011;32190;49.112;8.598;2023-03-01T18:59:11;4.10;;;2.95;;
32146;SDS011;32190;49.112;8.598;2023-03-01T19:05:26;3.92;;;3.03;;
32146;SDS011;32190;49.112;8.598;2023-03-01T19:11:20;6.20;;;3.28;;
32146;SDS011;32190;49.112;8.598;2023-03-01T19:17:16;4.85;;;3.75;;
32146;SDS011;32190;49.112;8.598;2023-03-01T19:23:21;4.05;;;2.65;;
32146;SDS011;32190;49.112;8.598;2023-03-01T19:29:27;4.30;;;3.23;;
32146;SDS011;32190;49.112;8.598;2023-03-01T19:35:36;4.55;;;3.58;;
32146;SDS011;32190;49.112;8.598;2023-03-01T19:42:05;3.85;;;3.38;;
32146;SDS011;32190;49.112;8.598;2023-03-01T19:48:08;3.80;;;3.45;;
32146;SDS011;32190;49.112;8.598;2023-03-01T19:54:01;2.72;;;2.50;;
32146;SDS011;32190;49.112;8.598;2023-03-01T19:59:56;4.05;;;3.22;;
32146;SDS011;32190;49.112;8.598;2023-03-01T20:05:54;5.65;;;3.75;;
32146;SDS011;32190;49.112;8.598;2023-03-01T20:11:58;4.28;;;3.28;;
32146;SDS011;32190;49.112;8.598;2023-03-01T20:17:49;4.60;;;3.58;;
32146;SDS011;32190;49.112;8.598;2023-03-01T20:24:03;4.93;;;3.63;;
32146;SDS011;32190;49.112;8.598;2023-03-01T20:30:03;4.30;;;3.55;;
32146;SDS011;32190;49.112;8.598;2023-03-01T20:36:06;3.30;;;2.97;;
32146;SDS011;32190;49.112;8.598;2023-03-01T20:42:00;5.90;;;3.45;;
32146;SDS011;32190;49.112;8.598;2023-03-01T20:48:09;5.65;;;3.72;;
32146;SDS011;32190;49.112;8.598;2023-03-01T20:54:05;4.78;;;3.67;;
32146;SDS011;32190;49.112;8.598;2023-03-01T20:59:59;4.28;;;3.88;;
32146;SDS011;32190;49.112;8.598;2023-03-01T21:05:58;5.53;;;3.42;;
32146;SDS011;32190;49.112;8.598;2023-03-01T21:11:55;5.72;;;3.65;;
32146;SDS011;32190;49.112;8.598;2023-03-01T21:17:46;4.72;;;3.30;;
32146;SDS011;32190;49.112;8.598;2023-03-01T21:23:40;4.57;;;3.92;;
32146;SDS011;32190;49.112;8.598;2023-03-01T21:29:45;4.50;;;3.60;;
32146;SDS011;32190;49.112;8.598;2023-03-01T21:35:39;3.50;;;3.20;;
32146;SDS011;32190;49.112;8.598;2023-03-01T21:41:50;4.45;;;3.58;;
32146;SDS011;32190;49.112;8.598;2023-03-01T21:47:52;4.95;;;3.70;;
32146;SDS011;32190;49.112;8.598;2023-03-01T21:53:48;5.32;;;3.70;;
32146;SDS011;32190;49.112;8.598;2023-03-01T21:59:45;6.93;;;4.18;;
32146;SDS011;32190;49.112;8.598;2023-03-01T22:05:41;4.28;;;3.72;;
32146;SDS011;32190;49.112;8.598;2023-03-01T22:11:44;5.35;;;3.95;;
32146;SDS011;32190;49.112;8.598;2023-03-01T22:17:41;4.50;;;4.00;;
32146;SDS011;32190;49.112;8.598;2023-03-01T22:23:35;5.30;;;4.10;;
32146;SDS011;32190;49.112;8.598;2023-03-01T22:29:27;5.07;;;3.85;;
32146;SDS011;32190;49.112;8.598;2023-03-01T22:35:29;3.78;;;3.25;;
32146;SDS011;32190;49.112;8.598;2023-03-01T22:41:22;7.40;;;5.00;;
32146;SDS011;32190;49.112;8.598;2023-03-01T22:47:16;5.47;;;4.22;;
32146;SDS011;32190;49.112;8.598;2023-03-01T22:53:10;4.18;;;3.63;;
32146;SDS011;32190;49.112;8.598;2023-03-01T22:59:11;5.70;;;4.00;;
32146;SDS011;32190;49.112;8.598;2023-03-01T23:05:19;4.47;;;3.72;;
32146;SDS011;32190;49.112;8.598;2023-03-01T23:11:15;5.07;;;4.03;;
32146;SDS011;32190;49.112;8.598;2023-03-01T23:17:09;4.95;;;3.85;;
32146;SDS011;32190;49.112;8.598;2023-03-01T23:23:02;5.82;;;4.50;;
32146;SDS011;32190;49.112;8.598;2023-03-01T23:29:00;4.65;;;3.50;;
32146;SDS011;32190;49.112;8.598;2023-03-01T23:34:54;4.93;;;3.97;;
32146;SDS011;32190;49.112;8.598;2023-03-01T23:40:47;5.72;;;4.47;;
32146;SDS011;32190;49.112;8.598;2023-03-01T23:46:38;6.05;;;4.32;;
32146;SDS011;32190;49.112;8.598;2023-03-01T23:52:38;4.97;;;4.05;;
32146;SDS011;32190;49.112;8.598;2023-03-01T23:58:32;5.25;;;4.15;;
